sensor_id;sensor_type;location;lat;lon;timestamp;temperature;humidity
15288;DHT22;7745;48.708;9.026;2022-12-17T00:00:20;-4.00;99.90
15288;DHT22;7745;48.708;9.026;2022-12-17T00:03:08;-4.20;99.90
15288;DHT22;7745;48.708;9.026;2022-12-17T00:05:53;-4.40;99.90
15288;DHT22;7745;48.708;9.026;2022-12-17T00:08:39;-4.30;99.90
15288;DHT22;7745;48.708;9.026;2022-12-17T00:11:35;-4.40;99.90
15288;DHT22;7745;48.708;9.026;2022-12-17T00:14:31;-4.30;99.90
15288;DHT22;7745;48.708;9.026;2022-12-17T00:17:19;-4.60;99.90
15288;DHT22;7745;48.708;9.026;2022-12-17T00:20:16;-4.40;99.90
15288;DHT22;7745;48.708;9.026;2022-12-17T00:23:07;-4.50;99.90
15288;DHT22;7745;48.708;9.026;2022-12-17T00:25:56;-4.60;99.90
15288;DHT22;7745;48.708;9.026;2022-12-17T00:29:01;-4.30;99.90
15288;DHT22;7745;48.708;9.026;2022-12-17T00:31:46;-4.70;99.90
15288;DHT22;7745;48.708;9.026;2022-12-17T00:34:33;-4.40;99.90
15288;DHT22;7745;48.708;9.026;2022-12-17T00:37:20;-4.80;99.90
15288;DHT22;7745;48.708;9.026;2022-12-17T00:40:08;-4.80;99.90
15288;DHT22;7745;48.708;9.026;2022-12-17T00:43:05;-4.90;99.90
15288;DHT22;7745;48.708;9.026;2022-12-17T00:46:00;-4.90;99.90
15288;DHT22;7745;48.708;9.026;2022-12-17T00:48:50;-5.20;99.90
15288;DHT22;7745;48.708;9.026;2022-12-17T00:51:44;-5.40;99.90
15288;DHT22;7745;48.708;9.026;2022-12-17T00:54:34;-4.90;99.90
15288;DHT22;7745;48.708;9.026;2022-12-17T00:57:28;-5.10;99.90
15288;DHT22;7745;48.708;9.026;2022-12-17T01:00:17;-5.40;99.90
15288;DHT22;7745;48.708;9.026;2022-12-17T01:03:15;-5.30;99.90
15288;DHT22;7745;48.708;9.026;2022-12-17T01:06:03;-5.30;99.90
15288;DHT22;7745;48.708;9.026;2022-12-17T01:11:51;-5.70;99.90
15288;DHT22;7745;48.708;9.026;2022-12-17T01:14:35;-5.50;99.90
15288;DHT22;7745;48.708;9.026;2022-12-17T01:17:21;-5.50;99.90
15288;DHT22;7745;48.708;9.026;2022-12-17T01:20:06;-5.20;99.90
15288;DHT22;7745;48.708;9.026;2022-12-17T01:22:47;-5.60;99.90
15288;DHT22;7745;48.708;9.026;2022-12-17T01:25:32;-5.10;99.90
15288;DHT22;7745;48.708;9.026;2022-12-17T01:28:20;-5.30;99.90
15288;DHT22;7745;48.708;9.026;2022-12-17T01:31:05;-5.60;99.90
15288;DHT22;7745;48.708;9.026;2022-12-17T01:33:53;-5.20;99.90
15288;DHT22;7745;48.708;9.026;2022-12-17T01:36:37;-5.70;99.90
15288;DHT22;7745;48.708;9.026;2022-12-17T01:39:22;-5.70;99.90
15288;DHT22;7745;48.708;9.026;2022-12-17T01:42:03;-5.80;99.90
15288;DHT22;7745;48.708;9.026;2022-12-17T01:44:51;-5.80;99.90
15288;DHT22;7745;48.708;9.026;2022-12-17T01:47:41;-5.80;99.90
15288;DHT22;7745;48.708;9.026;2022-12-17T01:50:28;-5.40;99.90
15288;DHT22;7745;48.708;9.026;2022-12-17T01:53:14;-6.00;99.90
15288;DHT22;7745;48.708;9.026;2022-12-17T01:55:58;-6.00;99.90
15288;DHT22;7745;48.708;9.026;2022-12-17T01:58:46;-6.10;99.90
15288;DHT22;7745;48.708;9.026;2022-12-17T02:01:31;-6.10;99.90
15288;DHT22;7745;48.708;9.026;2022-12-17T02:04:16;-5.80;99.90
15288;DHT22;7745;48.708;9.026;2022-12-17T02:07:16;-5.90;99.90
15288;DHT22;7745;48.708;9.026;2022-12-17T02:10:09;-6.30;99.90
15288;DHT22;7745;48.708;9.026;2022-12-17T02:12:58;-6.30;99.90
15288;DHT22;7745;48.708;9.026;2022-12-17T02:15:47;-5.90;99.90
15288;DHT22;7745;48.708;9.026;2022-12-17T02:18:35;-6.30;99.90
15288;DHT22;7745;48.708;9.026;2022-12-17T02:21:25;-6.30;99.90
15288;DHT22;7745;48.708;9.026;2022-12-17T02:24:15;-6.40;99.90
15288;DHT22;7745;48.708;9.026;2022-12-17T02:27:04;-6.40;99.90
15288;DHT22;7745;48.708;9.026;2022-12-17T02:29:53;-6.40;99.90
15288;DHT22;7745;48.708;9.026;2022-12-17T02:32:48;-6.50;99.90
15288;DHT22;7745;48.708;9.026;2022-12-17T02:35:39;-6.50;99.90
15288;DHT22;7745;48.708;9.026;2022-12-17T02:38:22;-6.40;99.90
15288;DHT22;7745;48.708;9.026;2022-12-17T02:41:09;-6.50;99.90
15288;DHT22;7745;48.708;9.026;2022-12-17T02:43:59;-6.20;99.90
15288;DHT22;7745;48.708;9.026;2022-12-17T02:46:44;-6.60;99.90
15288;DHT22;7745;48.708;9.026;2022-12-17T02:49:30;-6.70;99.90
15288;DHT22;7745;48.708;9.026;2022-12-17T02:52:17;-6.60;99.90
15288;DHT22;7745;48.708;9.026;2022-12-17T02:55:08;-6.40;99.90
15288;DHT22;7745;48.708;9.026;2022-12-17T02:57:52;-6.80;99.90
15288;DHT22;7745;48.708;9.026;2022-12-17T03:00:38;-6.80;99.90
15288;DHT22;7745;48.708;9.026;2022-12-17T03:03:22;-6.80;99.90
15288;DHT22;7745;48.708;9.026;2022-12-17T03:06:07;-6.60;99.90
15288;DHT22;7745;48.708;9.026;2022-12-17T03:08:51;-6.80;99.90
15288;DHT22;7745;48.708;9.026;2022-12-17T03:11:35;-6.50;99.90
15288;DHT22;7745;48.708;9.026;2022-12-17T03:14:22;-6.80;99.90
15288;DHT22;7745;48.708;9.026;2022-12-17T03:17:08;-6.90;99.90
15288;DHT22;7745;48.708;9.026;2022-12-17T03:19:52;-7.00;99.90
15288;DHT22;7745;48.708;9.026;2022-12-17T03:22:37;-7.00;99.90
15288;DHT22;7745;48.708;9.026;2022-12-17T03:25:21;-7.00;99.90
15288;DHT22;7745;48.708;9.026;2022-12-17T03:28:08;-6.50;99.90
15288;DHT22;7745;48.708;9.026;2022-12-17T03:30:53;-7.00;99.90
15288;DHT22;7745;48.708;9.026;2022-12-17T03:33:40;-6.90;99.90
15288;DHT22;7745;48.708;9.026;2022-12-17T03:36:24;-7.10;99.90
15288;DHT22;7745;48.708;9.026;2022-12-17T03:39:09;-7.10;99.90
15288;DHT22;7745;48.708;9.026;2022-12-17T03:41:53;-7.10;99.90
15288;DHT22;7745;48.708;9.026;2022-12-17T03:44:37;-7.10;99.90
15288;DHT22;7745;48.708;9.026;2022-12-17T03:47:21;-7.10;99.90
15288;DHT22;7745;48.708;9.026;2022-12-17T03:50:09;-7.20;99.90
15288;DHT22;7745;48.708;9.026;2022-12-17T03:52:54;-7.30;99.90
15288;DHT22;7745;48.708;9.026;2022-12-17T03:55:38;-7.30;99.90
15288;DHT22;7745;48.708;9.026;2022-12-17T03:58:22;-7.30;99.90
15288;DHT22;7745;48.708;9.026;2022-12-17T04:01:06;-7.30;99.90
15288;DHT22;7745;48.708;9.026;2022-12-17T04:03:50;-7.30;99.90
15288;DHT22;7745;48.708;9.026;2022-12-17T04:06:37;-6.90;99.90
15288;DHT22;7745;48.708;9.026;2022-12-17T04:09:18;-7.30;99.90
15288;DHT22;7745;48.708;9.026;2022-12-17T04:12:02;-7.40;99.90
15288;DHT22;7745;48.708;9.026;2022-12-17T04:14:46;-7.40;99.90
15288;DHT22;7745;48.708;9.026;2022-12-17T04:17:31;-7.40;99.90
15288;DHT22;7745;48.708;9.026;2022-12-17T04:20:15;-7.30;99.90
15288;DHT22;7745;48.708;9.026;2022-12-17T04:23:00;-7.10;99.90
15288;DHT22;7745;48.708;9.026;2022-12-17T04:25:44;-7.50;99.90
15288;DHT22;7745;48.708;9.026;2022-12-17T04:28:34;-7.50;99.90
15288;DHT22;7745;48.708;9.026;2022-12-17T04:31:35;-7.60;99.90
15288;DHT22;7745;48.708;9.026;2022-12-17T04:34:20;-7.30;99.90
15288;DHT22;7745;48.708;9.026;2022-12-17T04:37:04;-7.60;99.90
15288;DHT22;7745;48.708;9.026;2022-12-17T04:39:50;-7.40;99.90
15288;DHT22;7745;48.708;9.026;2022-12-17T04:42:39;-7.70;99.90
15288;DHT22;7745;48.708;9.026;2022-12-17T04:45:24;-7.70;99.90
15288;DHT22;7745;48.708;9.026;2022-12-17T04:48:08;-7.70;99.90
15288;DHT22;7745;48.708;9.026;2022-12-17T04:50:52;-7.80;99.90
15288;DHT22;7745;48.708;9.026;2022-12-17T04:53:40;-7.80;99.90
15288;DHT22;7745;48.708;9.026;2022-12-17T04:56:26;-7.50;99.90
15288;DHT22;7745;48.708;9.026;2022-12-17T04:59:11;-7.50;99.90
15288;DHT22;7745;48.708;9.026;2022-12-17T05:01:55;-7.80;99.90
15288;DHT22;7745;48.708;9.026;2022-12-17T05:04:39;-7.80;99.90
15288;DHT22;7745;48.708;9.026;2022-12-17T05:07:23;-7.90;99.90
15288;DHT22;7745;48.708;9.026;2022-12-17T05:10:08;-7.90;99.90
15288;DHT22;7745;48.708;9.026;2022-12-17T05:12:57;-7.90;99.90
15288;DHT22;7745;48.708;9.026;2022-12-17T05:15:44;-7.90;99.90
15288;DHT22;7745;48.708;9.026;2022-12-17T05:18:33;-7.60;99.90
15288;DHT22;7745;48.708;9.026;2022-12-17T05:21:20;-7.90;99.90
15288;DHT22;7745;48.708;9.026;2022-12-17T05:24:07;-8.10;99.90
15288;DHT22;7745;48.708;9.026;2022-12-17T05:26:51;-8.00;99.90
15288;DHT22;7745;48.708;9.026;2022-12-17T05:29:41;-8.10;99.90
15288;DHT22;7745;48.708;9.026;2022-12-17T05:32:28;-7.80;99.90
15288;DHT22;7745;48.708;9.026;2022-12-17T05:35:13;-8.10;99.90
15288;DHT22;7745;48.708;9.026;2022-12-17T05:38:02;-8.10;99.90
15288;DHT22;7745;48.708;9.026;2022-12-17T05:40:46;-8.10;99.90
15288;DHT22;7745;48.708;9.026;2022-12-17T05:43:30;-8.20;99.90
15288;DHT22;7745;48.708;9.026;2022-12-17T05:46:16;-7.60;99.90
15288;DHT22;7745;48.708;9.026;2022-12-17T05:49:00;-8.10;99.90
15288;DHT22;7745;48.708;9.026;2022-12-17T05:51:44;-8.10;99.90
15288;DHT22;7745;48.708;9.026;2022-12-17T05:54:29;-8.10;99.90
15288;DHT22;7745;48.708;9.026;2022-12-17T05:57:21;-7.80;99.90
15288;DHT22;7745;48.708;9.026;2022-12-17T06:00:07;-8.10;99.90
15288;DHT22;7745;48.708;9.026;2022-12-17T06:02:57;-8.00;99.90
15288;DHT22;7745;48.708;9.026;2022-12-17T06:05:41;-7.90;99.90
15288;DHT22;7745;48.708;9.026;2022-12-17T06:08:26;-7.80;99.90
15288;DHT22;7745;48.708;9.026;2022-12-17T06:11:10;-7.80;99.90
15288;DHT22;7745;48.708;9.026;2022-12-17T06:13:54;-7.60;99.90
15288;DHT22;7745;48.708;9.026;2022-12-17T06:16:39;-7.40;99.90
15288;DHT22;7745;48.708;9.026;2022-12-17T06:19:24;-7.60;99.90
15288;DHT22;7745;48.708;9.026;2022-12-17T06:22:09;-7.40;99.90
15288;DHT22;7745;48.708;9.026;2022-12-17T06:24:53;-7.40;99.90
15288;DHT22;7745;48.708;9.026;2022-12-17T06:27:37;-6.80;99.90
15288;DHT22;7745;48.708;9.026;2022-12-17T06:30:22;-7.10;99.90
15288;DHT22;7745;48.708;9.026;2022-12-17T06:33:08;-6.90;99.90
15288;DHT22;7745;48.708;9.026;2022-12-17T06:35:56;-7.10;99.90
15288;DHT22;7745;48.708;9.026;2022-12-17T06:38:40;-7.00;99.90
15288;DHT22;7745;48.708;9.026;2022-12-17T06:41:25;-6.90;99.90
15288;DHT22;7745;48.708;9.026;2022-12-17T06:44:09;-6.90;99.90
15288;DHT22;7745;48.708;9.026;2022-12-17T06:46:54;-6.80;99.90
15288;DHT22;7745;48.708;9.026;2022-12-17T06:49:38;-6.30;99.90
15288;DHT22;7745;48.708;9.026;2022-12-17T06:52:24;-6.40;99.90
15288;DHT22;7745;48.708;9.026;2022-12-17T06:55:08;-6.70;99.90
15288;DHT22;7745;48.708;9.026;2022-12-17T06:57:57;-6.60;99.90
15288;DHT22;7745;48.708;9.026;2022-12-17T07:00:41;-6.60;99.90
15288;DHT22;7745;48.708;9.026;2022-12-17T07:03:34;-6.50;99.90
15288;DHT22;7745;48.708;9.026;2022-12-17T07:06:19;-6.50;99.90
15288;DHT22;7745;48.708;9.026;2022-12-17T07:09:05;-6.40;99.90
15288;DHT22;7745;48.708;9.026;2022-12-17T07:11:49;-6.40;99.90
15288;DHT22;7745;48.708;9.026;2022-12-17T07:14:38;-6.40;99.90
15288;DHT22;7745;48.708;9.026;2022-12-17T07:17:23;-6.40;99.90
15288;DHT22;7745;48.708;9.026;2022-12-17T07:20:08;-6.30;99.90
15288;DHT22;7745;48.708;9.026;2022-12-17T07:22:53;-6.30;99.90
15288;DHT22;7745;48.708;9.026;2022-12-17T07:25:40;-6.20;99.90
15288;DHT22;7745;48.708;9.026;2022-12-17T07:28:24;-5.50;99.90
15288;DHT22;7745;48.708;9.026;2022-12-17T07:31:08;-6.20;99.90
15288;DHT22;7745;48.708;9.026;2022-12-17T07:33:54;-6.10;99.90
15288;DHT22;7745;48.708;9.026;2022-12-17T07:36:37;-6.10;99.90
15288;DHT22;7745;48.708;9.026;2022-12-17T07:39:21;-6.10;99.90
15288;DHT22;7745;48.708;9.026;2022-12-17T07:42:07;-6.00;99.90
15288;DHT22;7745;48.708;9.026;2022-12-17T07:44:51;-5.90;99.90
15288;DHT22;7745;48.708;9.026;2022-12-17T07:47:35;-6.00;99.90
15288;DHT22;7745;48.708;9.026;2022-12-17T07:50:19;-6.00;99.90
15288;DHT22;7745;48.708;9.026;2022-12-17T07:53:04;-5.90;99.90
15288;DHT22;7745;48.708;9.026;2022-12-17T07:55:50;-5.90;99.90
15288;DHT22;7745;48.708;9.026;2022-12-17T07:58:35;-5.80;99.90
15288;DHT22;7745;48.708;9.026;2022-12-17T08:01:20;-5.30;99.90
15288;DHT22;7745;48.708;9.026;2022-12-17T08:04:04;-5.80;99.90
15288;DHT22;7745;48.708;9.026;2022-12-17T08:06:45;-5.80;99.90
15288;DHT22;7745;48.708;9.026;2022-12-17T08:09:29;-5.80;99.90
15288;DHT22;7745;48.708;9.026;2022-12-17T08:12:13;-5.70;99.90
15288;DHT22;7745;48.708;9.026;2022-12-17T08:14:59;-5.80;99.90
15288;DHT22;7745;48.708;9.026;2022-12-17T08:17:59;-5.80;99.90
15288;DHT22;7745;48.708;9.026;2022-12-17T08:20:43;-5.70;99.90
15288;DHT22;7745;48.708;9.026;2022-12-17T08:23:36;-5.70;99.90
15288;DHT22;7745;48.708;9.026;2022-12-17T08:26:20;-5.30;99.90
15288;DHT22;7745;48.708;9.026;2022-12-17T08:29:04;-5.60;99.90
15288;DHT22;7745;48.708;9.026;2022-12-17T08:31:50;-5.00;99.90
15288;DHT22;7745;48.708;9.026;2022-12-17T08:34:37;-5.70;99.90
15288;DHT22;7745;48.708;9.026;2022-12-17T08:37:21;-5.60;99.90
15288;DHT22;7745;48.708;9.026;2022-12-17T08:40:09;-5.40;99.90
15288;DHT22;7745;48.708;9.026;2022-12-17T08:42:56;-5.40;99.90
15288;DHT22;7745;48.708;9.026;2022-12-17T08:45:45;-5.40;99.90
15288;DHT22;7745;48.708;9.026;2022-12-17T08:48:31;-5.40;99.90
15288;DHT22;7745;48.708;9.026;2022-12-17T08:51:16;-5.30;99.90
15288;DHT22;7745;48.708;9.026;2022-12-17T08:54:10;-5.20;99.90
15288;DHT22;7745;48.708;9.026;2022-12-17T08:56:56;-5.20;99.90
15288;DHT22;7745;48.708;9.026;2022-12-17T08:59:40;-5.10;99.90
15288;DHT22;7745;48.708;9.026;2022-12-17T09:02:24;-5.10;99.90
15288;DHT22;7745;48.708;9.026;2022-12-17T09:05:12;-5.00;99.90
15288;DHT22;7745;48.708;9.026;2022-12-17T09:08:00;-5.20;99.90
15288;DHT22;7745;48.708;9.026;2022-12-17T09:10:47;-5.20;99.90
15288;DHT22;7745;48.708;9.026;2022-12-17T09:13:31;-5.10;99.90
15288;DHT22;7745;48.708;9.026;2022-12-17T09:16:16;-5.00;99.90
15288;DHT22;7745;48.708;9.026;2022-12-17T09:19:15;-5.00;99.90
15288;DHT22;7745;48.708;9.026;2022-12-17T09:22:01;-5.10;99.90
15288;DHT22;7745;48.708;9.026;2022-12-17T09:24:57;-5.10;99.90
15288;DHT22;7745;48.708;9.026;2022-12-17T09:27:41;-5.10;99.90
15288;DHT22;7745;48.708;9.026;2022-12-17T09:30:26;-5.10;99.90
15288;DHT22;7745;48.708;9.026;2022-12-17T09:33:13;-5.00;99.90
15288;DHT22;7745;48.708;9.026;2022-12-17T09:35:58;-5.00;99.90
15288;DHT22;7745;48.708;9.026;2022-12-17T09:38:44;-4.70;99.90
15288;DHT22;7745;48.708;9.026;2022-12-17T09:41:32;-4.90;99.90
15288;DHT22;7745;48.708;9.026;2022-12-17T09:44:23;-4.90;99.90
15288;DHT22;7745;48.708;9.026;2022-12-17T09:47:18;-4.80;99.90
15288;DHT22;7745;48.708;9.026;2022-12-17T09:50:26;-4.60;99.90
15288;DHT22;7745;48.708;9.026;2022-12-17T09:53:27;-4.90;99.90
15288;DHT22;7745;48.708;9.026;2022-12-17T09:56:21;-4.40;99.90
15288;DHT22;7745;48.708;9.026;2022-12-17T09:59:18;-4.60;99.90
15288;DHT22;7745;48.708;9.026;2022-12-17T10:04:50;-4.70;99.90
15288;DHT22;7745;48.708;9.026;2022-12-17T10:07:39;-4.10;99.90
15288;DHT22;7745;48.708;9.026;2022-12-17T10:10:25;-4.70;99.90
15288;DHT22;7745;48.708;9.026;2022-12-17T10:13:16;-4.80;99.90
15288;DHT22;7745;48.708;9.026;2022-12-17T10:16:00;-4.20;99.90
15288;DHT22;7745;48.708;9.026;2022-12-17T10:19:01;-4.60;99.90
15288;DHT22;7745;48.708;9.026;2022-12-17T10:21:48;-4.50;99.90
15288;DHT22;7745;48.708;9.026;2022-12-17T10:34:53;-4.30;99.90
15288;DHT22;7745;48.708;9.026;2022-12-17T10:37:43;-4.30;99.90
15288;DHT22;7745;48.708;9.026;2022-12-17T10:40:30;-4.20;99.90
15288;DHT22;7745;48.708;9.026;2022-12-17T10:43:27;-4.30;99.90
15288;DHT22;7745;48.708;9.026;2022-12-17T10:46:22;-4.20;99.90
15288;DHT22;7745;48.708;9.026;2022-12-17T10:49:11;-4.20;99.90
15288;DHT22;7745;48.708;9.026;2022-12-17T10:52:13;-3.90;99.90
15288;DHT22;7745;48.708;9.026;2022-12-17T10:55:03;-4.30;99.90
15288;DHT22;7745;48.708;9.026;2022-12-17T10:57:49;-4.60;99.90
15288;DHT22;7745;48.708;9.026;2022-12-17T11:00:36;-3.90;99.90
15288;DHT22;7745;48.708;9.026;2022-12-17T11:03:32;-3.90;99.90
15288;DHT22;7745;48.708;9.026;2022-12-17T11:06:24;-3.80;99.90
15288;DHT22;7745;48.708;9.026;2022-12-17T11:09:17;-3.80;99.90
15288;DHT22;7745;48.708;9.026;2022-12-17T11:12:06;-3.80;99.90
15288;DHT22;7745;48.708;9.026;2022-12-17T11:14:56;-3.70;99.90
15288;DHT22;7745;48.708;9.026;2022-12-17T11:17:43;-3.70;99.90
15288;DHT22;7745;48.708;9.026;2022-12-17T11:20:41;-3.50;99.90
15288;DHT22;7745;48.708;9.026;2022-12-17T11:23:27;-3.40;99.90
15288;DHT22;7745;48.708;9.026;2022-12-17T11:26:14;-3.60;99.90
15288;DHT22;7745;48.708;9.026;2022-12-17T11:29:00;-3.60;99.90
15288;DHT22;7745;48.708;9.026;2022-12-17T11:31:54;-3.60;99.90
15288;DHT22;7745;48.708;9.026;2022-12-17T11:34:57;-3.60;99.90
15288;DHT22;7745;48.708;9.026;2022-12-17T11:38:00;-3.70;99.90
15288;DHT22;7745;48.708;9.026;2022-12-17T11:41:09;-3.70;99.90
15288;DHT22;7745;48.708;9.026;2022-12-17T11:47:19;-3.30;99.90
15288;DHT22;7745;48.708;9.026;2022-12-17T11:53:47;-3.40;99.90
15288;DHT22;7745;48.708;9.026;2022-12-17T11:56:37;-3.40;99.90
15288;DHT22;7745;48.708;9.026;2022-12-17T11:59:25;-3.50;99.90
15288;DHT22;7745;48.708;9.026;2022-12-17T12:02:27;-3.50;99.90
15288;DHT22;7745;48.708;9.026;2022-12-17T12:05:23;-3.40;99.90
15288;DHT22;7745;48.708;9.026;2022-12-17T12:08:16;-3.20;99.90
15288;DHT22;7745;48.708;9.026;2022-12-17T12:11:05;-3.20;99.90
15288;DHT22;7745;48.708;9.026;2022-12-17T12:13:57;-3.10;99.90
15288;DHT22;7745;48.708;9.026;2022-12-17T12:16:52;-3.10;99.90
15288;DHT22;7745;48.708;9.026;2022-12-17T12:19:47;-3.00;99.90
15288;DHT22;7745;48.708;9.026;2022-12-17T12:22:42;-3.10;99.90
15288;DHT22;7745;48.708;9.026;2022-12-17T12:25:34;-2.90;99.90
15288;DHT22;7745;48.708;9.026;2022-12-17T12:28:26;-2.80;99.90
15288;DHT22;7745;48.708;9.026;2022-12-17T12:31:20;-2.80;99.90
15288;DHT22;7745;48.708;9.026;2022-12-17T12:34:10;-2.80;99.90
15288;DHT22;7745;48.708;9.026;2022-12-17T12:36:58;-2.70;99.90
15288;DHT22;7745;48.708;9.026;2022-12-17T12:39:51;-2.70;99.90
15288;DHT22;7745;48.708;9.026;2022-12-17T12:42:41;-2.70;99.90
15288;DHT22;7745;48.708;9.026;2022-12-17T12:45:48;-2.70;99.90
15288;DHT22;7745;48.708;9.026;2022-12-17T12:48:41;-2.70;99.90
15288;DHT22;7745;48.708;9.026;2022-12-17T12:51:33;-2.60;99.90
15288;DHT22;7745;48.708;9.026;2022-12-17T12:54:29;-2.50;99.90
15288;DHT22;7745;48.708;9.026;2022-12-17T12:57:28;-2.50;99.90
15288;DHT22;7745;48.708;9.026;2022-12-17T13:00:29;-2.50;99.90
15288;DHT22;7745;48.708;9.026;2022-12-17T13:03:35;-2.40;99.90
15288;DHT22;7745;48.708;9.026;2022-12-17T13:06:44;-2.20;99.90
15288;DHT22;7745;48.708;9.026;2022-12-17T13:09:31;-2.40;99.90
15288;DHT22;7745;48.708;9.026;2022-12-17T13:12:17;-2.50;99.90
15288;DHT22;7745;48.708;9.026;2022-12-17T13:17:59;-2.20;99.90
15288;DHT22;7745;48.708;9.026;2022-12-17T13:20:34;-2.40;99.90
15288;DHT22;7745;48.708;9.026;2022-12-17T13:23:13;-2.00;99.90
15288;DHT22;7745;48.708;9.026;2022-12-17T13:29:09;-2.30;99.90
15288;DHT22;7745;48.708;9.026;2022-12-17T13:31:55;-2.30;99.90
15288;DHT22;7745;48.708;9.026;2022-12-17T13:34:32;-2.30;99.90
15288;DHT22;7745;48.708;9.026;2022-12-17T13:37:06;-2.30;99.90
15288;DHT22;7745;48.708;9.026;2022-12-17T13:39:39;-1.90;99.90
15288;DHT22;7745;48.708;9.026;2022-12-17T13:42:16;-2.20;99.90
15288;DHT22;7745;48.708;9.026;2022-12-17T13:44:46;-2.30;99.90
15288;DHT22;7745;48.708;9.026;2022-12-17T13:47:20;-2.40;99.90
15288;DHT22;7745;48.708;9.026;2022-12-17T13:49:49;-2.40;99.90
15288;DHT22;7745;48.708;9.026;2022-12-17T13:52:19;-2.30;99.90
15288;DHT22;7745;48.708;9.026;2022-12-17T13:54:47;-2.00;99.90
15288;DHT22;7745;48.708;9.026;2022-12-17T13:57:15;-2.30;99.90
15288;DHT22;7745;48.708;9.026;2022-12-17T14:00:04;-2.30;99.90
15288;DHT22;7745;48.708;9.026;2022-12-17T14:02:35;-2.30;99.90
15288;DHT22;7745;48.708;9.026;2022-12-17T14:05:21;-2.30;99.90
15288;DHT22;7745;48.708;9.026;2022-12-17T14:08:15;-2.30;99.90
15288;DHT22;7745;48.708;9.026;2022-12-17T14:11:00;-2.20;99.90
15288;DHT22;7745;48.708;9.026;2022-12-17T14:13:51;-2.40;99.90
15288;DHT22;7745;48.708;9.026;2022-12-17T14:16:33;-2.40;99.90
15288;DHT22;7745;48.708;9.026;2022-12-17T14:22:55;-2.60;99.90
15288;DHT22;7745;48.708;9.026;2022-12-17T14:25:28;-2.60;99.90
15288;DHT22;7745;48.708;9.026;2022-12-17T14:27:59;-2.60;99.90
15288;DHT22;7745;48.708;9.026;2022-12-17T14:30:35;-2.70;99.90
15288;DHT22;7745;48.708;9.026;2022-12-17T14:33:18;-2.70;99.90
15288;DHT22;7745;48.708;9.026;2022-12-17T14:35:50;-2.80;99.90
15288;DHT22;7745;48.708;9.026;2022-12-17T14:38:19;-2.80;99.90
15288;DHT22;7745;48.708;9.026;2022-12-17T14:40:46;-2.90;99.90
15288;DHT22;7745;48.708;9.026;2022-12-17T14:43:14;-2.50;99.90
15288;DHT22;7745;48.708;9.026;2022-12-17T14:45:47;-2.50;99.90
15288;DHT22;7745;48.708;9.026;2022-12-17T14:48:30;-3.00;99.90
15288;DHT22;7745;48.708;9.026;2022-12-17T14:51:20;-3.00;99.90
15288;DHT22;7745;48.708;9.026;2022-12-17T14:53:47;-3.10;99.90
15288;DHT22;7745;48.708;9.026;2022-12-17T14:56:21;-3.10;99.90
15288;DHT22;7745;48.708;9.026;2022-12-17T15:02:18;-3.20;99.90
15288;DHT22;7745;48.708;9.026;2022-12-17T15:04:49;-3.30;99.90
15288;DHT22;7745;48.708;9.026;2022-12-17T15:07:23;-3.30;99.90
15288;DHT22;7745;48.708;9.026;2022-12-17T15:09:59;-3.40;99.90
15288;DHT22;7745;48.708;9.026;2022-12-17T15:12:29;-3.40;99.90
15288;DHT22;7745;48.708;9.026;2022-12-17T15:15:06;-3.40;99.90
15288;DHT22;7745;48.708;9.026;2022-12-17T15:17:44;-3.50;99.90
15288;DHT22;7745;48.708;9.026;2022-12-17T15:20:15;-3.20;99.90
15288;DHT22;7745;48.708;9.026;2022-12-17T15:22:55;-3.70;99.90
15288;DHT22;7745;48.708;9.026;2022-12-17T15:25:22;-3.70;99.90
15288;DHT22;7745;48.708;9.026;2022-12-17T15:27:49;-3.50;99.90
15288;DHT22;7745;48.708;9.026;2022-12-17T15:30:17;-3.80;99.90
15288;DHT22;7745;48.708;9.026;2022-12-17T15:32:44;-4.10;99.90
15288;DHT22;7745;48.708;9.026;2022-12-17T15:35:13;-4.20;99.90
15288;DHT22;7745;48.708;9.026;2022-12-17T15:37:40;-4.30;99.90
15288;DHT22;7745;48.708;9.026;2022-12-17T15:40:10;-4.30;99.90
15288;DHT22;7745;48.708;9.026;2022-12-17T15:42:37;-4.40;99.90
15288;DHT22;7745;48.708;9.026;2022-12-17T15:45:25;-4.50;99.90
15288;DHT22;7745;48.708;9.026;2022-12-17T15:47:52;-4.50;99.90
15288;DHT22;7745;48.708;9.026;2022-12-17T15:50:20;-4.60;99.90
15288;DHT22;7745;48.708;9.026;2022-12-17T15:52:50;-4.60;99.90
15288;DHT22;7745;48.708;9.026;2022-12-17T15:55:18;-4.70;99.90
15288;DHT22;7745;48.708;9.026;2022-12-17T15:57:45;-4.40;99.90
15288;DHT22;7745;48.708;9.026;2022-12-17T16:00:13;-4.80;99.90
15288;DHT22;7745;48.708;9.026;2022-12-17T16:02:48;-4.90;99.90
15288;DHT22;7745;48.708;9.026;2022-12-17T16:07:09;-4.90;99.90
15288;DHT22;7745;48.708;9.026;2022-12-17T16:12:05;-4.70;99.90
15288;DHT22;7745;48.708;9.026;2022-12-17T16:14:33;-5.40;99.90
15288;DHT22;7745;48.708;9.026;2022-12-17T16:17:04;-5.00;99.90
15288;DHT22;7745;48.708;9.026;2022-12-17T16:19:38;-5.10;99.90
15288;DHT22;7745;48.708;9.026;2022-12-17T16:22:09;-4.80;99.90
15288;DHT22;7745;48.708;9.026;2022-12-17T16:24:36;-5.00;99.90
15288;DHT22;7745;48.708;9.026;2022-12-17T16:27:06;-4.90;99.90
15288;DHT22;7745;48.708;9.026;2022-12-17T16:29:36;-5.10;99.90
15288;DHT22;7745;48.708;9.026;2022-12-17T16:32:26;-5.30;99.90
15288;DHT22;7745;48.708;9.026;2022-12-17T16:35:04;-5.10;99.90
15288;DHT22;7745;48.708;9.026;2022-12-17T16:37:53;-5.30;99.90
15288;DHT22;7745;48.708;9.026;2022-12-17T17:00:30;-5.50;99.90
15288;DHT22;7745;48.708;9.026;2022-12-17T17:04:18;-6.10;99.90
15288;DHT22;7745;48.708;9.026;2022-12-17T17:13:47;-5.90;99.90
15288;DHT22;7745;48.708;9.026;2022-12-17T17:16:24;-5.90;99.90
15288;DHT22;7745;48.708;9.026;2022-12-17T17:22:07;-5.60;99.90
15288;DHT22;7745;48.708;9.026;2022-12-17T17:24:45;-6.10;99.90
15288;DHT22;7745;48.708;9.026;2022-12-17T17:27:16;-5.90;99.90
15288;DHT22;7745;48.708;9.026;2022-12-17T17:29:51;-5.90;99.90
15288;DHT22;7745;48.708;9.026;2022-12-17T17:32:29;-6.00;99.90
15288;DHT22;7745;48.708;9.026;2022-12-17T17:35:02;-6.00;99.90
15288;DHT22;7745;48.708;9.026;2022-12-17T17:37:42;-6.10;99.90
15288;DHT22;7745;48.708;9.026;2022-12-17T17:40:19;-6.00;99.90
15288;DHT22;7745;48.708;9.026;2022-12-17T17:42:49;-6.10;99.90
15288;DHT22;7745;48.708;9.026;2022-12-17T17:45:32;-5.60;99.90
15288;DHT22;7745;48.708;9.026;2022-12-17T17:48:30;-6.20;99.90
15288;DHT22;7745;48.708;9.026;2022-12-17T17:51:13;-6.30;99.90
15288;DHT22;7745;48.708;9.026;2022-12-17T17:53:52;-6.30;99.90
15288;DHT22;7745;48.708;9.026;2022-12-17T17:56:23;-6.40;99.90
15288;DHT22;7745;48.708;9.026;2022-12-17T17:59:02;-6.40;99.90
15288;DHT22;7745;48.708;9.026;2022-12-17T18:01:33;-6.50;99.90
15288;DHT22;7745;48.708;9.026;2022-12-17T18:04:02;-6.30;99.90
15288;DHT22;7745;48.708;9.026;2022-12-17T18:06:30;-6.50;99.90
15288;DHT22;7745;48.708;9.026;2022-12-17T18:08:58;-6.60;99.90
15288;DHT22;7745;48.708;9.026;2022-12-17T18:11:28;-6.10;99.90
15288;DHT22;7745;48.708;9.026;2022-12-17T18:13:58;-6.60;99.90
15288;DHT22;7745;48.708;9.026;2022-12-17T18:16:26;-6.60;99.90
15288;DHT22;7745;48.708;9.026;2022-12-17T18:18:54;-6.70;99.90
15288;DHT22;7745;48.708;9.026;2022-12-17T18:21:24;-6.70;99.90
15288;DHT22;7745;48.708;9.026;2022-12-17T18:23:53;-6.70;99.90
15288;DHT22;7745;48.708;9.026;2022-12-17T18:26:22;-6.80;99.90
15288;DHT22;7745;48.708;9.026;2022-12-17T18:28:49;-6.80;99.90
15288;DHT22;7745;48.708;9.026;2022-12-17T18:31:19;-6.80;99.90
15288;DHT22;7745;48.708;9.026;2022-12-17T18:33:54;-6.90;99.90
15288;DHT22;7745;48.708;9.026;2022-12-17T18:36:26;-6.60;99.90
15288;DHT22;7745;48.708;9.026;2022-12-17T18:38:57;-6.80;99.90
15288;DHT22;7745;48.708;9.026;2022-12-17T18:41:26;-6.90;99.90
15288;DHT22;7745;48.708;9.026;2022-12-17T18:44:14;-6.90;99.90